Terminal Aerodrome Forecast
Issued by NWS Huntsville, AL

Home | Current Version | Previous Version | Text Only | Print | Product List | Glossary On
Versions: 1 2 3 4 5 6 7 8 9 10 11 12 13 14 15 16 17 18 19 20 21 22 23 24 25 26 27 28
000
FTUS44 KHUN 291918 AAA
TAFHSV
TAF AMD
KHSV 291918Z 2919/3018 23012G22KT P6SM VCSH SCT035 SCT070 SCT150
     FM292100 26015G25KT P6SM VCSH SCT015 BKN030
     FM300800 35011KT P6SM SCT015
     FM301500 01010KT P6SM SKC=

USA.gov is the U.S. government's official web portal to all federal, state and local government web resources and services.